Time;durP1;ratioP1;P1;durP2;ratioP2;P2;SDS_P1;SDS_P2;PMS_P1;PMS_P2;Temp;Humidity;BMP_temperature;BMP_pressure;BME280_temperature;BME280_humidity;BME280_pressure;Samples;Min_cycle;Max_cycle;Signal;HPM_P1;HPM_P2
2023/12/06 00:01:52;;;;;;;21.35;15.80;;;6.40;99.90;;;;;;5076148;28;20036;-63
2023/12/06 00:04:18;;;;;;;22.70;15.38;;;6.40;99.90;;;;;;5092828;28;20036;-65
2023/12/06 00:06:44;;;;;;;20.73;15.13;;;6.40;99.90;;;;;;5092984;28;20317;-64
2023/12/06 00:09:09;;;;;;;22.77;14.68;;;6.30;99.90;;;;;;5075890;28;20135;-64
2023/12/06 00:11:35;;;;;;;24.95;16.30;;;6.20;99.90;;;;;;5095549;28;20476;-64
2023/12/06 00:14:01;;;;;;;19.75;15.07;;;6.50;99.90;;;;;;5080039;28;20086;-65
2023/12/06 00:16:27;;;;;;;23.27;15.70;;;6.40;99.90;;;;;;5096972;28;20025;-65
2023/12/06 00:18:54;;;;;;;20.50;15.07;;;6.40;99.90;;;;;;5080854;28;20086;-65
2023/12/06 00:21:20;;;;;;;23.98;15.95;;;6.40;99.90;;;;;;5080779;28;20056;-66
2023/12/06 00:23:46;;;;;;;20.95;15.63;;;6.50;99.90;;;;;;5080674;28;20033;-65
2023/12/06 00:26:12;;;;;;;22.98;15.52;;;6.50;99.90;;;;;;5079777;28;20102;-65
2023/12/06 00:28:37;;;;;;;22.52;16.45;;;6.40;99.90;;;;;;5080272;28;20131;-66
2023/12/06 00:31:03;;;;;;;22.70;16.52;;;6.40;99.90;;;;;;5062913;28;20440;-65
2023/12/06 00:33:29;;;;;;;23.58;15.57;;;6.30;99.90;;;;;;5079606;28;20044;-65
2023/12/06 00:35:55;;;;;;;23.20;16.10;;;6.40;99.90;;;;;;5080319;28;20086;-65
2023/12/06 00:38:21;;;;;;;21.65;16.10;;;6.30;99.90;;;;;;5079528;28;20036;-65
2023/12/06 00:40:47;;;;;;;21.75;15.20;;;6.40;99.90;;;;;;5079553;28;20043;-65
2023/12/06 00:43:13;;;;;;;19.70;15.38;;;6.40;99.90;;;;;;5096313;28;20109;-65
2023/12/06 00:45:38;;;;;;;25.65;16.15;;;6.40;99.90;;;;;;5080175;28;20025;-65
2023/12/06 00:48:05;;;;;;;20.92;15.40;;;6.40;99.90;;;;;;5062690;28;20123;-65
2023/12/06 00:50:31;;;;;;;22.50;14.65;;;6.50;99.90;;;;;;5079922;28;20040;-64
2023/12/06 00:52:57;;;;;;;21.42;15.63;;;6.40;99.90;;;;;;5079874;28;20472;-65
2023/12/06 00:55:22;;;;;;;21.80;15.00;;;6.30;99.90;;;;;;5079237;28;20399;-65
2023/12/06 00:57:48;;;;;;;24.30;15.48;;;6.50;99.90;;;;;;5079239;28;20036;-65
2023/12/06 01:00:14;;;;;;;25.35;16.63;;;6.80;99.90;;;;;;5079187;28;20413;-65
2023/12/06 01:02:40;;;;;;;25.10;17.15;;;6.90;99.90;;;;;;5079265;28;20032;-65
2023/12/06 01:05:06;;;;;;;25.80;17.05;;;6.90;99.90;;;;;;5095943;28;20046;-66
2023/12/06 01:07:32;;;;;;;22.20;15.95;;;6.80;99.90;;;;;;5079682;28;20039;-67
2023/12/06 01:09:58;;;;;;;25.60;16.83;;;6.70;99.90;;;;;;5079652;28;20103;-66
2023/12/06 01:12:24;;;;;;;28.02;17.52;;;6.60;99.90;;;;;;5078793;28;20065;-64
2023/12/06 01:14:50;;;;;;;24.70;17.45;;;6.60;99.90;;;;;;5095650;28;20043;-64
2023/12/06 01:17:15;;;;;;;27.35;18.77;;;6.70;99.90;;;;;;5095644;28;20332;-64
2023/12/06 01:19:41;;;;;;;27.77;19.05;;;6.70;99.90;;;;;;5095778;28;20025;-65
2023/12/06 01:22:07;;;;;;;30.80;20.10;;;6.90;99.90;;;;;;5079368;28;20037;-63
2023/12/06 01:24:33;;;;;;;31.85;20.88;;;6.90;99.90;;;;;;5079551;28;20303;-64
2023/12/06 01:26:59;;;;;;;29.88;19.85;;;7.00;99.90;;;;;;5078662;28;20043;-65
2023/12/06 01:29:24;;;;;;;31.15;20.90;;;6.90;99.90;;;;;;5061825;28;20091;-65
2023/12/06 01:31:50;;;;;;;34.35;21.45;;;6.80;99.90;;;;;;5079338;28;20055;-65
2023/12/06 01:34:16;;;;;;;36.13;21.25;;;6.80;99.90;;;;;;5079201;28;20115;-65
2023/12/06 01:36:42;;;;;;;32.63;21.60;;;6.80;99.90;;;;;;5078487;28;20051;-65
2023/12/06 01:39:08;;;;;;;28.92;19.67;;;6.80;99.90;;;;;;5061742;28;20056;-65
2023/12/06 01:41:34;;;;;;;33.47;22.02;;;6.70;99.90;;;;;;5078318;28;20121;-64
2023/12/06 01:44:00;;;;;;;30.50;21.50;;;6.70;99.90;;;;;;5078299;28;20035;-65
2023/12/06 01:46:25;;;;;;;35.85;20.50;;;6.70;99.90;;;;;;5061550;28;20025;-64
2023/12/06 01:48:54;;;;;;;29.20;19.77;;;6.60;99.90;;;;;;5079131;28;20064;-65
2023/12/06 01:51:21;;;;;;;27.88;19.42;;;6.60;99.90;;;;;;5078893;28;20021;-64
2023/12/06 01:53:47;;;;;;;31.50;19.17;;;6.60;99.90;;;;;;5078830;28;20021;-64
2023/12/06 01:56:14;;;;;;;28.55;19.30;;;6.60;99.90;;;;;;5078813;28;20047;-65
2023/12/06 01:58:40;;;;;;;30.65;19.15;;;6.60;99.90;;;;;;5061244;28;20032;-65
2023/12/06 02:01:06;;;;;;;28.50;18.73;;;6.60;99.90;;;;;;5078039;28;20033;-66
2023/12/06 02:03:33;;;;;;;25.40;17.73;;;6.70;99.90;;;;;;5094774;28;20123;-66
2023/12/06 02:06:02;;;;;;;28.50;19.77;;;6.70;99.90;;;;;;5078607;28;20028;-66
2023/12/06 02:08:28;;;;;;;32.17;21.20;;;6.70;99.90;;;;;;5077777;28;20345;-66
2023/12/06 02:10:54;;;;;;;30.90;20.63;;;6.70;99.90;;;;;;5077656;28;20136;-65
2023/12/06 02:13:20;;;;;;;30.27;20.60;;;6.70;99.90;;;;;;5078424;28;20518;-65
2023/12/06 02:15:47;;;;;;;31.60;21.13;;;6.80;99.90;;;;;;5078444;28;20048;-65
2023/12/06 02:18:13;;;;;;;31.95;20.98;;;6.80;99.90;;;;;;5094263;28;20056;-65
2023/12/06 02:20:40;;;;;;;28.70;19.40;;;6.60;99.90;;;;;;5094513;28;20301;-65
2023/12/06 02:23:07;;;;;;;30.70;19.73;;;6.40;99.90;;;;;;5078237;28;20033;-65
2023/12/06 02:25:34;;;;;;;29.20;19.13;;;6.20;99.90;;;;;;5077550;28;20025;-65
2023/12/06 02:28:00;;;;;;;32.85;20.20;;;6.30;99.90;;;;;;5077947;28;20040;-66
2023/12/06 02:30:25;;;;;;;28.73;19.55;;;6.30;99.90;;;;;;5078186;28;20170;-65
2023/12/06 02:32:51;;;;;;;30.83;20.08;;;6.50;99.90;;;;;;5076887;28;20040;-66
2023/12/06 02:35:49;;;;;;;29.92;19.83;;;6.60;99.90;;;;;;5094004;28;20033;-66
2023/12/06 02:38:17;;;;;;;31.20;19.67;;;6.70;99.90;;;;;;5077643;28;20040;-66
2023/12/06 02:40:46;;;;;;;30.70;19.55;;;6.80;99.90;;;;;;5078074;28;20033;-66
2023/12/06 02:43:14;;;;;;;30.55;18.95;;;6.70;99.90;;;;;;5077860;28;20060;-66
2023/12/06 02:45:40;;;;;;;30.27;19.73;;;6.70;99.90;;;;;;5077077;28;20025;-66
2023/12/06 02:48:07;;;;;;;30.38;19.48;;;6.60;99.90;;;;;;5077800;28;20039;-66
2023/12/06 02:50:36;;;;;;;31.05;19.85;;;6.70;99.90;;;;;;5077741;28;20036;-66
2023/12/06 02:53:02;;;;;;;32.20;20.40;;;6.70;99.90;;;;;;5077705;28;20303;-66
2023/12/06 02:55:27;;;;;;;31.30;20.40;;;6.90;99.90;;;;;;5076965;28;20043;-66
2023/12/06 02:57:53;;;;;;;30.85;20.10;;;6.90;99.90;;;;;;5077573;28;20430;-65
2023/12/06 03:00:19;;;;;;;35.42;22.15;;;6.80;99.90;;;;;;5077617;28;20025;-66
2023/12/06 03:02:45;;;;;;;32.15;21.63;;;6.80;99.90;;;;;;5093646;28;20087;-65
2023/12/06 03:05:11;;;;;;;33.58;21.27;;;6.70;99.90;;;;;;5076732;28;20457;-65
2023/12/06 03:07:37;;;;;;;37.22;22.67;;;6.50;99.90;;;;;;5077665;28;20029;-65
2023/12/06 03:10:03;;;;;;;31.35;20.38;;;6.60;99.90;;;;;;5093605;28;20043;-66
2023/12/06 03:12:29;;;;;;;32.97;22.08;;;6.70;99.90;;;;;;5077248;28;20056;-66
2023/12/06 03:14:55;;;;;;;34.13;21.10;;;6.60;99.90;;;;;;5077335;28;20060;-65
2023/12/06 03:17:21;;;;;;;30.75;20.92;;;6.60;99.90;;;;;;5093420;28;20041;-65
2023/12/06 03:19:47;;;;;;;33.67;21.90;;;6.50;99.90;;;;;;5093288;28;20300;-65
2023/12/06 03:22:13;;;;;;;31.02;21.15;;;6.50;99.90;;;;;;5093214;28;20025;-66
2023/12/06 03:24:39;;;;;;;33.35;21.30;;;6.50;99.90;;;;;;5077289;28;20047;-65
2023/12/06 03:27:04;;;;;;;27.98;19.85;;;6.50;99.90;;;;;;5077147;28;20115;-65
2023/12/06 03:29:30;;;;;;;31.95;20.48;;;6.40;99.90;;;;;;5093084;28;20099;-65
2023/12/06 03:31:56;;;;;;;30.30;20.13;;;6.30;99.90;;;;;;5077016;28;20063;-65
2023/12/06 03:34:21;;;;;;;27.05;18.67;;;6.30;99.90;;;;;;5077033;28;20025;-64
2023/12/06 03:36:47;;;;;;;33.17;20.30;;;6.30;99.90;;;;;;5093211;28;20406;-64
2023/12/06 03:39:13;;;;;;;28.02;19.27;;;6.20;99.90;;;;;;5077104;28;20021;-64
2023/12/06 03:41:39;;;;;;;30.55;20.15;;;6.20;99.90;;;;;;5076926;28;20043;-65
2023/12/06 03:44:04;;;;;;;30.98;19.70;;;6.20;99.90;;;;;;5076047;28;20040;-64
2023/12/06 03:46:30;;;;;;;29.90;19.38;;;6.30;99.90;;;;;;5075198;28;20049;-64
2023/12/06 03:48:56;;;;;;;27.40;18.90;;;6.30;99.90;;;;;;5075952;28;20032;-67
2023/12/06 03:51:22;;;;;;;33.08;20.58;;;6.30;99.90;;;;;;5076001;28;20056;-65
2023/12/06 03:53:48;;;;;;;34.80;21.58;;;6.30;99.90;;;;;;5092802;28;20111;-65
2023/12/06 03:56:13;;;;;;;33.47;20.20;;;6.40;99.90;;;;;;5076784;28;20031;-66
2023/12/06 03:58:39;;;;;;;34.65;19.42;;;6.40;99.90;;;;;;5092911;28;20107;-65
2023/12/06 04:01:05;;;;;;;30.48;19.23;;;6.60;99.90;;;;;;5075858;28;20075;-65
2023/12/06 04:03:31;;;;;;;34.42;20.67;;;6.60;99.90;;;;;;5092695;28;20316;-66
2023/12/06 04:05:57;;;;;;;33.33;20.02;;;6.60;99.90;;;;;;5076638;28;20036;-65
2023/12/06 04:08:22;;;;;;;28.95;18.40;;;6.60;99.90;;;;;;5076608;28;20135;-65
2023/12/06 04:10:48;;;;;;;34.45;19.67;;;6.60;99.90;;;;;;5075750;28;20052;-64
2023/12/06 04:13:14;;;;;;;37.80;20.98;;;6.60;99.90;;;;;;5076560;28;20033;-65
2023/12/06 04:15:40;;;;;;;32.65;19.85;;;6.70;99.90;;;;;;5076576;28;20025;-66
2023/12/06 04:18:05;;;;;;;37.47;22.15;;;6.50;99.90;;;;;;5076631;28;20044;-66
2023/12/06 04:20:31;;;;;;;35.42;20.98;;;6.50;99.90;;;;;;5076507;28;20040;-66
2023/12/06 04:22:57;;;;;;;34.30;20.35;;;6.50;99.90;;;;;;5076510;28;20411;-65
2023/12/06 04:25:23;;;;;;;32.97;21.17;;;6.50;99.90;;;;;;5075697;28;20028;-66
2023/12/06 04:27:48;;;;;;;28.08;18.20;;;6.50;99.90;;;;;;5075546;28;20358;-66
2023/12/06 04:30:14;;;;;;;34.10;19.17;;;6.50;99.90;;;;;;5075711;28;20094;-66
2023/12/06 04:32:40;;;;;;;28.65;18.20;;;6.40;99.90;;;;;;5092473;28;20040;-66
2023/12/06 04:35:09;;;;;;;26.88;18.13;;;6.40;99.90;;;;;;5075934;28;20029;-66
2023/12/06 04:37:35;;;;;;;28.58;17.58;;;6.50;99.90;;;;;;5075730;28;20346;-65
2023/12/06 04:40:01;;;;;;;25.52;17.17;;;6.40;99.90;;;;;;5075715;28;20098;-66
2023/12/06 04:42:27;;;;;;;26.35;16.65;;;6.30;99.90;;;;;;5076691;28;20431;-66
2023/12/06 04:44:52;;;;;;;24.55;16.30;;;6.40;99.90;;;;;;5092457;28;20043;-65
2023/12/06 04:47:18;;;;;;;25.95;15.73;;;6.50;99.90;;;;;;5075581;28;20041;-67
2023/12/06 04:49:44;;;;;;;21.63;14.57;;;6.50;99.90;;;;;;5076471;28;20028;-66
2023/12/06 04:52:10;;;;;;;24.00;15.27;;;6.40;99.90;;;;;;5092425;28;20115;-65
2023/12/06 04:54:35;;;;;;;23.27;14.57;;;6.30;99.90;;;;;;5092382;28;20021;-67
2023/12/06 04:57:01;;;;;;;19.95;13.43;;;6.30;99.90;;;;;;5093891;28;20043;-66
2023/12/06 04:59:27;;;;;;;19.73;14.00;;;6.40;99.90;;;;;;5079476;28;20055;-66
2023/12/06 05:01:53;;;;;;;23.30;14.43;;;6.30;99.90;;;;;;5078995;28;20400;-67
2023/12/06 05:04:19;;;;;;;19.48;13.88;;;6.50;99.90;;;;;;5095894;28;20039;-67
2023/12/06 05:06:45;;;;;;;25.77;15.07;;;6.50;99.90;;;;;;5079786;28;20036;-67
2023/12/06 05:09:12;;;;;;;24.75;16.33;;;6.50;99.90;;;;;;5078896;28;20037;-67
2023/12/06 05:11:37;;;;;;;23.15;15.50;;;6.30;99.90;;;;;;5062298;28;20304;-67
2023/12/06 05:14:03;;;;;;;25.42;15.45;;;6.30;99.90;;;;;;5079655;28;20039;-68
2023/12/06 05:16:29;;;;;;;25.17;16.08;;;6.40;99.90;;;;;;5079224;28;20119;-68
2023/12/06 05:18:55;;;;;;;25.33;14.85;;;6.40;99.90;;;;;;5079560;28;20281;-67
2023/12/06 05:21:20;;;;;;;22.60;14.95;;;6.40;99.90;;;;;;5078820;28;20103;-68
2023/12/06 05:23:48;;;;;;;20.50;14.77;;;6.40;99.90;;;;;;5078961;28;20331;-67
2023/12/06 05:26:14;;;;;;;23.55;14.55;;;6.40;99.90;;;;;;5079533;28;20074;-68
2023/12/06 05:28:39;;;;;;;21.70;13.60;;;6.40;99.90;;;;;;5095400;28;20050;-67
2023/12/06 05:31:05;;;;;;;23.23;14.55;;;6.40;99.90;;;;;;5079345;28;20373;-68
2023/12/06 05:33:31;;;;;;;20.65;14.32;;;6.50;99.90;;;;;;5079451;28;20127;-67
2023/12/06 05:35:57;;;;;;;20.83;14.07;;;6.50;99.90;;;;;;5078548;28;20036;-67
2023/12/06 05:38:23;;;;;;;20.95;12.88;;;6.50;99.90;;;;;;5078367;28;20036;-67
2023/12/06 05:40:49;;;;;;;19.85;12.73;;;6.50;99.90;;;;;;5095214;28;20028;-67
2023/12/06 05:43:15;;;;;;;18.77;12.68;;;6.50;99.90;;;;;;5078975;28;20391;-68
2023/12/06 05:45:41;;;;;;;17.80;11.80;;;6.50;99.90;;;;;;5078262;28;20125;-67
2023/12/06 05:48:10;;;;;;;19.15;12.25;;;6.70;99.90;;;;;;5078475;28;20113;-68
2023/12/06 05:50:35;;;;;;;16.20;10.75;;;6.80;99.90;;;;;;5094997;28;20079;-68
2023/12/06 05:53:03;;;;;;;15.80;10.82;;;6.80;99.90;;;;;;5094942;28;20117;-67
2023/12/06 05:55:29;;;;;;;19.48;10.82;;;6.80;99.90;;;;;;5078088;28;20025;-68
2023/12/06 05:57:55;;;;;;;14.90;10.23;;;6.80;99.90;;;;;;5077915;28;20039;-68
2023/12/06 06:00:22;;;;;;;17.75;10.45;;;6.80;99.90;;;;;;5077971;28;20037;-67
2023/12/06 06:02:47;;;;;;;17.55;11.00;;;6.60;99.90;;;;;;5077857;28;20060;-68
2023/12/06 06:05:13;;;;;;;18.60;10.55;;;6.80;99.90;;;;;;5077866;28;20122;-67
2023/12/06 06:07:39;;;;;;;15.45;11.00;;;6.70;99.90;;;;;;5077525;28;20119;-67
2023/12/06 06:10:07;;;;;;;14.45;10.52;;;6.70;99.90;;;;;;5094219;28;20032;-68
2023/12/06 06:12:33;;;;;;;22.42;11.45;;;6.70;99.90;;;;;;5078225;28;20074;-67
2023/12/06 06:14:59;;;;;;;18.48;11.73;;;6.60;99.90;;;;;;5094486;28;20021;-67
2023/12/06 06:17:25;;;;;;;14.98;11.38;;;6.60;99.90;;;;;;5077658;28;20075;-67
2023/12/06 06:19:51;;;;;;;19.33;12.10;;;6.60;99.90;;;;;;5060823;28;20363;-67
2023/12/06 06:22:16;;;;;;;15.05;11.52;;;6.60;99.90;;;;;;5078267;28;20047;-68
2023/12/06 06:24:42;;;;;;;17.65;11.27;;;6.60;99.90;;;;;;5077476;28;20095;-67
2023/12/06 06:27:08;;;;;;;17.20;11.55;;;6.50;99.90;;;;;;5094318;28;20048;-67
2023/12/06 06:29:34;;;;;;;21.80;10.98;;;6.60;99.90;;;;;;5078027;28;20063;-68
2023/12/06 06:31:59;;;;;;;17.67;11.50;;;6.40;99.90;;;;;;5077267;28;20377;-67
2023/12/06 06:34:25;;;;;;;20.98;11.32;;;6.30;99.90;;;;;;5078020;28;20368;-67
2023/12/06 06:36:51;;;;;;;19.05;11.32;;;6.20;99.90;;;;;;5060593;28;20330;-67
2023/12/06 06:39:17;;;;;;;19.38;11.25;;;6.10;99.90;;;;;;5077016;28;20020;-67
2023/12/06 06:41:43;;;;;;;20.95;11.55;;;6.00;99.90;;;;;;5077364;28;20074;-67
2023/12/06 06:44:09;;;;;;;18.00;11.30;;;5.90;99.90;;;;;;5077836;28;20028;-67
2023/12/06 06:46:34;;;;;;;18.13;10.93;;;5.80;99.90;;;;;;5077836;28;20047;-67
2023/12/06 06:49:01;;;;;;;17.10;11.02;;;5.70;99.90;;;;;;5077648;28;20284;-67
2023/12/06 06:51:36;;;;;;;18.05;11.50;;;5.60;99.90;;;;;;5076863;28;20097;-68
2023/12/06 06:54:08;;;;;;;19.98;12.27;;;5.50;99.90;;;;;;5076796;28;20029;-66
2023/12/06 06:56:35;;;;;;;18.70;11.43;;;5.40;99.90;;;;;;5077717;28;20085;-67
2023/12/06 06:59:00;;;;;;;20.55;11.93;;;5.40;99.90;;;;;;5093630;28;20032;-67
2023/12/06 07:01:27;;;;;;;22.08;11.23;;;5.50;99.90;;;;;;5076851;28;20029;-68
2023/12/06 07:03:53;;;;;;;21.60;10.50;;;5.40;99.90;;;;;;5093656;28;20311;-66
2023/12/06 07:06:20;;;;;;;20.50;10.57;;;5.50;99.90;;;;;;5093564;28;20131;-68
2023/12/06 07:08:46;;;;;;;23.52;10.00;;;5.60;99.90;;;;;;5059981;28;20025;-68
2023/12/06 07:11:12;;;;;;;19.05;9.60;;;5.70;99.90;;;;;;5077172;28;20063;-69
2023/12/06 07:13:39;;;;;;;17.77;9.30;;;5.60;99.90;;;;;;5077416;28;20064;-66
2023/12/06 07:16:05;;;;;;;14.82;9.45;;;5.60;99.90;;;;;;5076452;28;20029;-68
2023/12/06 07:18:33;;;;;;;14.60;9.57;;;5.70;99.90;;;;;;5076647;28;20062;-67
2023/12/06 07:20:59;;;;;;;18.10;9.13;;;5.70;99.90;;;;;;5077050;28;20029;-67
2023/12/06 07:23:25;;;;;;;19.02;9.40;;;5.70;99.90;;;;;;5076265;28;20096;-67
2023/12/06 07:25:52;;;;;;;15.02;8.57;;;5.60;99.90;;;;;;5076625;28;20119;-65
2023/12/06 07:28:18;;;;;;;16.08;9.52;;;5.70;99.90;;;;;;5076863;28;20043;-67
2023/12/06 07:30:45;;;;;;;15.27;8.80;;;6.40;99.90;;;;;;5076792;28;20039;-68
2023/12/06 07:33:11;;;;;;;15.10;9.13;;;6.20;99.90;;;;;;5076531;28;20052;-68
2023/12/06 07:35:37;;;;;;;14.38;8.20;;;6.20;99.90;;;;;;5076517;28;20059;-68
2023/12/06 07:38:05;;;;;;;13.82;8.00;;;6.10;99.90;;;;;;5076849;28;20039;-69
2023/12/06 07:40:31;;;;;;;17.63;8.65;;;5.90;99.90;;;;;;5076734;28;20098;-68
2023/12/06 07:42:56;;;;;;;18.48;9.57;;;5.90;99.90;;;;;;5076625;28;20036;-67
2023/12/06 07:45:22;;;;;;;19.52;8.73;;;6.00;99.90;;;;;;5075832;28;20396;-67
2023/12/06 07:47:49;;;;;;;17.80;8.02;;;6.00;99.90;;;;;;5076793;28;20032;-67
2023/12/06 07:50:15;;;;;;;13.57;8.80;;;6.00;99.90;;;;;;5075976;28;20047;-67
2023/12/06 07:52:41;;;;;;;20.30;8.88;;;5.80;99.90;;;;;;5075844;28;20111;-67
2023/12/06 07:55:08;;;;;;;15.75;8.15;;;5.60;99.90;;;;;;5076790;28;20159;-67
2023/12/06 07:57:34;;;;;;;14.82;9.88;;;5.60;99.90;;;;;;5076766;28;20033;-67
2023/12/06 08:00:00;;;;;;;19.38;8.57;;;5.60;99.90;;;;;;5076789;28;20027;-68
2023/12/06 08:02:26;;;;;;;14.13;7.80;;;5.70;99.90;;;;;;5076620;28;20307;-67
2023/12/06 08:04:52;;;;;;;17.58;8.13;;;5.60;99.90;;;;;;5076027;28;20040;-67
2023/12/06 08:07:17;;;;;;;13.52;8.00;;;5.60;99.90;;;;;;5075817;28;20032;-67
2023/12/06 08:09:44;;;;;;;17.35;9.05;;;5.60;99.90;;;;;;5076039;28;20024;-67
2023/12/06 08:12:09;;;;;;;16.85;8.90;;;5.50;99.90;;;;;;5076557;28;20273;-67
2023/12/06 08:14:39;;;;;;;19.50;9.18;;;5.40;99.90;;;;;;5092804;28;20033;-67
2023/12/06 08:17:05;;;;;;;17.40;9.80;;;5.20;99.90;;;;;;5076630;28;20272;-67
2023/12/06 08:19:31;;;;;;;18.67;9.10;;;5.10;99.90;;;;;;5092744;28;20055;-68
2023/12/06 08:21:57;;;;;;;15.15;9.15;;;5.10;99.90;;;;;;5092589;28;20032;-67
2023/12/06 08:24:23;;;;;;;19.38;9.85;;;5.20;99.90;;;;;;5076592;28;20033;-67
2023/12/06 08:26:49;;;;;;;19.92;9.77;;;5.10;99.90;;;;;;5076528;28;20450;-67
2023/12/06 08:29:15;;;;;;;24.50;9.95;;;5.10;99.90;;;;;;5076411;28;20131;-68
2023/12/06 08:31:41;;;;;;;20.52;10.60;;;5.10;99.90;;;;;;5076872;28;20423;-67
2023/12/06 08:34:07;;;;;;;18.73;9.98;;;5.10;99.90;;;;;;5080470;28;20025;-66
2023/12/06 08:36:33;;;;;;;23.13;9.65;;;5.20;99.90;;;;;;5079945;28;20299;-66
2023/12/06 08:38:58;;;;;;;19.50;9.45;;;5.20;99.90;;;;;;5079550;28;20058;-66
2023/12/06 08:41:24;;;;;;;18.77;9.48;;;5.30;99.90;;;;;;5079696;28;20028;-68
2023/12/06 08:43:50;;;;;;;13.50;9.40;;;5.30;99.90;;;;;;5079458;28;20087;-66
2023/12/06 08:46:16;;;;;;;18.13;9.15;;;5.40;99.90;;;;;;5079658;28;20064;-66
2023/12/06 08:48:42;;;;;;;16.10;8.85;;;5.60;99.90;;;;;;5079560;28;20058;-68
2023/12/06 08:51:10;;;;;;;22.50;9.77;;;6.00;99.90;;;;;;5079222;28;20316;-68
2023/12/06 08:53:36;;;;;;;18.73;10.35;;;6.20;99.90;;;;;;5079210;28;20292;-67
2023/12/06 08:56:02;;;;;;;19.30;9.65;;;6.20;99.90;;;;;;5080108;28;20040;-66
2023/12/06 08:58:28;;;;;;;15.82;9.07;;;6.40;99.90;;;;;;5096131;28;20296;-67
2023/12/06 09:00:54;;;;;;;17.33;8.98;;;6.50;99.90;;;;;;5079213;28;20024;-67
2023/12/06 09:03:20;;;;;;;16.65;9.32;;;6.60;99.90;;;;;;5080085;28;20032;-67
2023/12/06 09:05:48;;;;;;;17.23;8.85;;;6.80;99.90;;;;;;5080078;28;20273;-67
2023/12/06 09:08:14;;;;;;;18.42;9.05;;;6.90;99.90;;;;;;5095748;28;20048;-67
2023/12/06 09:10:40;;;;;;;17.75;9.15;;;7.10;99.90;;;;;;5096070;28;20039;-66
2023/12/06 09:13:06;;;;;;;13.40;8.52;;;7.00;99.90;;;;;;5080161;28;20029;-67
2023/12/06 09:15:31;;;;;;;18.58;9.32;;;7.10;99.90;;;;;;5079210;28;20025;-67
2023/12/06 09:17:57;;;;;;;14.52;9.20;;;7.10;99.90;;;;;;5079713;28;20029;-67
2023/12/06 09:20:23;;;;;;;20.52;9.88;;;7.20;99.90;;;;;;5095837;28;20028;-67
2023/12/06 09:22:50;;;;;;;13.68;8.20;;;7.20;99.90;;;;;;5078852;28;20394;-67
2023/12/06 09:25:16;;;;;;;12.98;8.73;;;7.20;99.90;;;;;;5079607;28;20112;-67
2023/12/06 09:27:42;;;;;;;15.13;9.18;;;7.20;99.90;;;;;;5078584;28;20064;-67
2023/12/06 09:30:09;;;;;;;14.05;8.77;;;7.30;99.90;;;;;;5079532;28;20349;-68
2023/12/06 09:32:35;;;;;;;16.10;9.00;;;7.40;99.90;;;;;;5078766;28;20044;-67
2023/12/06 09:35:01;;;;;;;17.02;9.07;;;7.50;99.90;;;;;;5079362;28;20312;-67
2023/12/06 09:37:27;;;;;;;13.95;8.32;;;7.60;99.90;;;;;;5079698;28;20028;-67
2023/12/06 09:39:53;;;;;;;16.90;8.20;;;7.50;99.90;;;;;;5079485;28;20472;-68
2023/12/06 09:42:19;;;;;;;13.90;7.82;;;7.40;99.90;;;;;;5078953;28;20384;-67
2023/12/06 09:44:45;;;;;;;13.98;7.15;;;7.10;99.90;;;;;;5078715;28;20459;-68
2023/12/06 09:47:12;;;;;;;11.00;7.53;;;7.00;99.90;;;;;;5079326;28;20128;-68
2023/12/06 09:49:38;;;;;;;16.75;7.38;;;7.20;99.90;;;;;;5061655;28;20119;-67
2023/12/06 09:52:09;;;;;;;11.00;6.90;;;7.40;99.90;;;;;;5078244;28;20036;-67
2023/12/06 09:54:42;;;;;;;9.88;6.80;;;7.50;99.90;;;;;;5078352;28;20028;-67
2023/12/06 09:57:10;;;;;;;12.90;6.88;;;7.60;99.90;;;;;;5079077;28;20058;-66
2023/12/06 09:59:36;;;;;;;11.80;6.50;;;7.60;99.90;;;;;;5078587;28;20077;-68
2023/12/06 10:02:02;;;;;;;13.05;7.18;;;7.50;99.90;;;;;;5095066;28;20123;-68
2023/12/06 10:04:28;;;;;;;11.77;6.95;;;7.60;99.90;;;;;;5078947;28;20028;-67
2023/12/06 10:06:54;;;;;;;11.93;7.15;;;7.50;99.90;;;;;;5079026;28;20029;-67
2023/12/06 10:09:20;;;;;;;13.02;7.72;;;7.40;99.90;;;;;;5078441;28;20043;-68
2023/12/06 10:11:47;;;;;;;15.18;7.30;;;7.50;99.90;;;;;;5094915;28;20059;-68
2023/12/06 10:14:22;;;;;;;12.52;7.75;;;7.50;99.90;;;;;;5061257;28;20024;-67
2023/12/06 10:16:48;;;;;;;15.55;7.47;;;7.50;99.90;;;;;;5077878;28;20036;-69
2023/12/06 10:19:19;;;;;;;13.65;7.32;;;7.50;99.90;;;;;;5078593;28;20418;-68
2023/12/06 10:21:50;;;;;;;10.30;7.20;;;7.60;99.90;;;;;;5061094;28;20308;-68
2023/12/06 10:24:16;;;;;;;11.43;6.80;;;7.60;99.90;;;;;;5078409;28;20284;-68
2023/12/06 10:26:42;;;;;;;13.40;7.03;;;7.30;99.90;;;;;;5061002;28;20036;-69
2023/12/06 10:29:08;;;;;;;9.52;6.13;;;7.40;99.90;;;;;;5078186;28;20410;-68
2023/12/06 10:31:45;;;;;;;12.00;6.53;;;7.60;99.90;;;;;;5078283;28;20284;-68
2023/12/06 10:34:11;;;;;;;13.90;6.55;;;7.70;99.90;;;;;;5060850;28;20032;-67
2023/12/06 10:36:37;;;;;;;9.93;6.25;;;7.80;99.90;;;;;;5077624;28;20032;-68
2023/12/06 10:39:15;;;;;;;10.27;6.53;;;7.80;99.90;;;;;;5077541;28;20107;-69
2023/12/06 10:41:43;;;;;;;15.95;6.18;;;8.00;99.90;;;;;;5078205;28;20120;-68
2023/12/06 10:44:10;;;;;;;9.18;6.32;;;8.20;99.90;;;;;;5077223;28;20040;-68
2023/12/06 10:46:36;;;;;;;9.68;5.88;;;8.10;99.90;;;;;;5077584;28;20119;-68
2023/12/06 10:49:03;;;;;;;12.90;7.03;;;8.20;99.90;;;;;;5077987;28;20024;-68
2023/12/06 10:51:29;;;;;;;12.95;7.45;;;8.30;99.90;;;;;;5077491;28;20058;-68
2023/12/06 10:53:59;;;;;;;10.77;7.43;;;8.30;99.90;;;;;;5076825;28;20024;-65
2023/12/06 10:56:27;;;;;;;9.57;6.60;;;8.40;99.90;;;;;;5077900;28;20037;-68
2023/12/06 10:58:55;;;;;;;13.07;6.15;;;8.30;99.90;;;;;;5077794;28;20127;-65
2023/12/06 11:01:22;;;;;;;12.82;6.38;;;8.20;99.90;;;;;;5076959;28;20039;-66
2023/12/06 11:03:49;;;;;;;11.45;6.07;;;8.20;99.90;;;;;;5093742;28;20036;-66
2023/12/06 11:06:40;;;;;;;8.15;5.72;;;8.00;99.90;;;;;;5093583;28;20434;-66
2023/12/06 11:09:28;;;;;;;9.07;6.00;;;7.60;99.90;;;;;;5076898;28;20055;-66
2023/12/06 11:12:30;;;;;;;9.05;6.03;;;7.60;99.90;;;;;;5077491;28;20028;-66
2023/12/06 11:15:31;;;;;;;11.48;5.93;;;7.70;99.90;;;;;;5077750;28;20388;-67
2023/12/06 11:18:13;;;;;;;10.38;5.65;;;7.50;99.90;;;;;;5077488;28;20063;-67
2023/12/06 11:20:40;;;;;;;;;;;7.80;99.90;;;;;;5077835;28;20100;-67
2023/12/06 11:23:06;;;;;;;8.70;5.25;;;8.10;99.90;;;;;;5077228;28;19995;-67
2023/12/06 11:25:32;;;;;;;10.27;5.30;;;8.20;99.90;;;;;;5077251;28;20043;-68
2023/12/06 11:27:59;;;;;;;12.40;5.28;;;8.30;99.90;;;;;;5076459;28;20371;-67
2023/12/06 11:30:24;;;;;;;8.68;5.05;;;8.30;99.90;;;;;;5076586;28;20411;-66
2023/12/06 11:32:58;;;;;;;10.38;5.40;;;8.50;99.90;;;;;;5093305;28;20465;-67
2023/12/06 11:35:24;;;;;;;7.97;4.75;;;8.70;99.90;;;;;;5076519;28;20033;-67
2023/12/06 11:37:52;;;;;;;7.85;4.47;;;9.30;99.90;;;;;;5059820;28;20410;-67
2023/12/06 11:40:18;;;;;;;5.97;4.53;;;9.40;93.40;;;;;;5077267;28;20024;-67
2023/12/06 11:42:58;;;;;;;6.88;4.50;;;8.90;90.40;;;;;;5076257;28;20024;-68
2023/12/06 11:45:29;;;;;;;9.55;4.88;;;8.70;97.70;;;;;;5076350;28;20036;-68
2023/12/06 11:48:00;;;;;;;8.90;5.30;;;8.50;99.90;;;;;;5076990;28;20089;-67
2023/12/06 11:50:26;;;;;;;9.02;5.60;;;8.40;99.90;;;;;;5093543;28;20043;-70
2023/12/06 11:52:55;;;;;;;13.68;5.22;;;8.40;99.90;;;;;;5076277;28;20295;-68
2023/12/06 11:55:23;;;;;;;10.32;5.00;;;8.30;99.90;;;;;;5076419;28;20040;-68
2023/12/06 11:58:22;;;;;;;9.98;5.50;;;8.20;99.90;;;;;;5076665;28;20021;-68
2023/12/06 12:00:52;;;;;;;9.13;5.90;;;8.00;99.90;;;;;;5054422;28;20036;-68
2023/12/06 12:03:19;;;;;;;9.48;5.82;;;7.90;99.90;;;;;;5076970;28;20051;-68
2023/12/06 12:05:46;;;;;;;8.38;5.22;;;8.00;99.90;;;;;;5076377;28;20056;-68
2023/12/06 12:08:14;;;;;;;9.15;5.82;;;8.30;99.90;;;;;;5075951;28;20162;-68
2023/12/06 12:10:41;;;;;;;9.82;4.93;;;8.60;99.90;;;;;;5076066;28;20025;-68
2023/12/06 12:13:22;;;;;;;8.55;5.35;;;8.60;99.90;;;;;;5092655;28;20032;-67
2023/12/06 12:15:56;;;;;;;10.52;5.07;;;8.60;99.90;;;;;;5076018;28;20036;-67
2023/12/06 12:18:24;;;;;;;9.73;5.22;;;8.80;94.90;;;;;;5076297;28;20419;-67
2023/12/06 12:20:50;;;;;;;8.45;5.35;;;8.90;96.40;;;;;;5076743;28;20029;-67
2023/12/06 12:23:16;;;;;;;10.38;5.80;;;8.80;93.30;;;;;;5075852;28;20025;-68
2023/12/06 12:25:46;;;;;;;9.52;5.22;;;8.90;92.20;;;;;;5075985;28;20427;-67
2023/12/06 12:28:16;;;;;;;9.73;5.20;;;9.10;86.40;;;;;;5058782;28;20032;-67
2023/12/06 12:30:42;;;;;;;12.52;5.88;;;9.20;71.50;;;;;;5076499;28;20028;-67
2023/12/06 12:33:10;;;;;;;12.68;5.60;;;9.20;76.10;;;;;;5075715;28;20037;-66
2023/12/06 12:35:36;;;;;;;10.70;5.28;;;9.10;72.60;;;;;;5076838;28;20036;-66
2023/12/06 12:38:03;;;;;;;10.27;4.78;;;9.20;67.40;;;;;;5075667;28;20074;-66
2023/12/06 12:40:29;;;;;;;8.20;4.22;;;9.10;70.90;;;;;;5092773;28;20346;-68
2023/12/06 12:42:56;;;;;;;9.60;4.13;;;9.10;65.90;;;;;;5076390;28;20060;-68